Time;durP1;ratioP1;P1;durP2;ratioP2;P2;SDS_P1;SDS_P2;PMS_P1;PMS_P2;Temp;Humidity;BMP_temperature;BMP_pressure;BME280_temperature;BME280_humidity;BME280_pressure;Samples;Min_cycle;Max_cycle;Signal;HPM_P1;HPM_P2
2022/03/24 00:02:08;;;;;;;90.47;41.00;;;;;;;2.94;47.62;101861.53;1737475;82;27486;-58
2022/03/24 00:04:35;;;;;;;94.90;40.67;;;;;;;2.92;47.88;101860.27;1737985;82;25767;-57
2022/03/24 00:07:04;;;;;;;98.07;40.00;;;;;;;2.94;47.75;101860.20;1737884;82;25740;-57
2022/03/24 00:09:31;;;;;;;92.47;36.93;;;;;;;2.90;47.79;101855.47;1738261;82;25779;-58
2022/03/24 00:11:57;;;;;;;95.60;42.55;;;;;;;2.92;47.75;101844.77;1737892;82;25540;-58
2022/03/24 00:14:24;;;;;;;108.35;42.62;;;;;;;2.90;47.94;101845.31;1737552;82;27454;-57
2022/03/24 00:16:51;;;;;;;94.52;37.85;;;;;;;2.87;48.06;101844.09;1737615;82;25924;-57
2022/03/24 00:19:19;;;;;;;97.30;37.28;;;;;;;2.83;48.01;101851.33;1738034;82;25806;-57
2022/03/24 00:21:46;;;;;;;84.28;38.67;;;;;;;2.81;48.04;101839.44;1737699;82;26127;-58
2022/03/24 00:24:13;;;;;;;91.00;39.48;;;;;;;2.78;48.37;101835.55;1737517;82;25910;-58
2022/03/24 00:26:40;;;;;;;95.30;41.10;;;;;;;2.74;47.99;101835.26;1738037;82;27460;-57
2022/03/24 00:29:09;;;;;;;86.22;36.55;;;;;;;2.74;47.99;101833.92;1737798;82;26499;-59
2022/03/24 00:31:36;;;;;;;92.57;38.10;;;;;;;2.74;48.23;101837.91;1737787;82;25719;-58
2022/03/24 00:34:05;;;;;;;93.10;39.03;;;;;;;2.71;48.01;101839.38;1728357;83;26486;-58
2022/03/24 00:36:32;;;;;;;97.57;39.08;;;;;;;2.71;48.40;101843.81;1743746;82;25753;-58
2022/03/24 00:38:59;;;;;;;85.55;37.55;;;;;;;2.66;48.61;101832.91;1745950;81;27331;-58
2022/03/24 00:41:28;;;;;;;83.15;36.80;;;;;;;2.64;48.76;101834.76;1745838;82;27364;-58
2022/03/24 00:43:55;;;;;;;86.08;37.33;;;;;;;2.64;48.56;101824.13;1748635;81;25724;-58
2022/03/24 00:46:23;;;;;;;78.90;35.60;;;;;;;2.62;49.67;101829.11;1748719;80;25945;-57
2022/03/24 00:48:52;;;;;;;88.67;37.65;;;;;;;2.47;49.24;101823.44;1746094;81;25708;-57
2022/03/24 00:51:20;;;;;;;88.37;37.55;;;;;;;2.44;49.51;101824.90;1746061;81;27622;-57
2022/03/24 00:53:49;;;;;;;94.97;38.78;;;;;;;2.44;49.32;101811.62;1746170;82;25657;-57
2022/03/24 00:56:18;;;;;;;94.80;37.78;;;;;;;2.44;49.24;101812.94;1746024;81;25718;-58
2022/03/24 00:58:45;;;;;;;81.78;35.43;;;;;;;2.43;49.34;101811.66;1720745;81;26538;-58
2022/03/24 01:01:12;;;;;;;92.82;37.45;;;;;;;2.35;49.86;101809.31;1716386;83;25883;-59
2022/03/24 01:03:42;;;;;;;80.32;38.17;;;;;;;2.34;50.27;101806.24;1715824;83;28240;-59
2022/03/24 01:06:16;;;;;;;82.88;38.33;;;;;;;2.30;49.60;101798.86;1716219;83;25795;-58
2022/03/24 01:08:39;;;;;;;84.22;37.35;;;;;;;2.30;50.07;101805.94;1716851;83;25458;-59
2022/03/24 01:11:06;;;;;;;83.67;36.90;;;;;;;2.29;50.39;101794.91;1716259;83;25789;-59
2022/03/24 01:13:35;;;;;;;86.57;37.90;;;;;;;2.25;50.88;101795.96;1716360;82;25799;-57
2022/03/24 01:16:05;;;;;;;83.80;36.48;;;;;;;2.20;50.22;101800.11;1716353;82;27441;-57
2022/03/24 01:18:34;;;;;;;80.47;36.23;;;;;;;2.16;50.40;101795.83;1773383;80;25695;-57
2022/03/24 01:21:05;;;;;;;83.90;35.73;;;;;;;2.10;51.45;101796.95;1768765;81;25767;-58
2022/03/24 01:23:32;;;;;;;82.90;33.70;;;;;;;2.08;50.75;101796.13;1769271;81;26511;-59
2022/03/24 01:26:01;;;;;;;85.22;34.90;;;;;;;2.10;50.70;101794.73;1748262;81;25836;-59
2022/03/24 01:28:29;;;;;;;75.78;33.48;;;;;;;2.05;50.59;101792.25;1705114;83;27463;-59
2022/03/24 01:30:56;;;;;;;80.47;34.88;;;;;;;2.03;51.25;101783.47;1745823;82;25824;-58
2022/03/24 01:33:23;;;;;;;74.92;33.98;;;;;;;2.05;51.02;101780.78;1745892;82;25821;-59
2022/03/24 01:35:52;;;;;;;80.00;32.45;;;;;;;2.04;50.91;101779.90;1750037;81;25799;-59
2022/03/24 01:38:19;;;;;;;73.92;32.67;;;;;;;2.02;51.23;101777.75;1717260;83;25464;-57
2022/03/24 01:40:46;;;;;;;83.03;31.87;;;;;;;2.02;51.53;101775.98;1754078;81;27429;-58
2022/03/24 01:43:14;;;;;;;78.62;34.05;;;;;;;2.01;51.13;101780.03;1717008;83;25705;-58
2022/03/24 01:45:41;;;;;;;72.97;31.93;;;;;;;1.96;50.88;101777.55;1753309;81;25864;-58
2022/03/24 01:48:08;;;;;;;67.62;30.77;;;;;;;1.94;50.91;101767.44;1717268;83;26608;-58
2022/03/24 01:50:39;;;;;;;67.82;31.93;;;;;;;1.96;51.06;101766.04;1753490;81;25824;-59
2022/03/24 01:53:06;;;;;;;70.30;31.70;;;;;;;1.91;51.07;101766.21;1717631;83;28497;-58
2022/03/24 01:55:34;;;;;;;75.57;31.23;;;;;;;1.89;51.17;101758.76;1753441;80;25788;-58
2022/03/24 01:58:03;;;;;;;65.70;29.23;;;;;;;1.81;51.58;101756.41;1701289;83;25807;-58
2022/03/24 02:00:31;;;;;;;71.75;31.05;;;;;;;1.79;51.60;101755.58;1703501;83;25702;-59
2022/03/24 02:03:02;;;;;;;70.62;32.65;;;;;;;1.79;52.01;101754.73;1734005;82;25736;-58
2022/03/24 02:05:35;;;;;;;67.92;30.17;;;;;;;1.75;52.25;101755.75;1704981;82;27660;-58
2022/03/24 02:08:03;;;;;;;66.97;30.15;;;;;;;1.70;51.72;101751.94;1704652;82;25838;-58
2022/03/24 02:10:33;;;;;;;60.45;29.87;;;;;;;1.70;51.91;101751.94;1721637;82;25662;-58
2022/03/24 02:13:03;;;;;;;69.60;30.32;;;;;;;1.67;52.31;101759.55;1721072;82;25710;-58
2022/03/24 02:15:32;;;;;;;67.32;31.17;;;;;;;1.65;51.96;101744.61;1724203;82;25772;-58
2022/03/24 02:18:00;;;;;;;69.17;30.60;;;;;;;1.62;51.94;101751.34;1726607;83;27504;-57
2022/03/24 02:20:28;;;;;;;66.80;30.88;;;;;;;1.60;51.99;101750.52;1726535;83;25864;-58
2022/03/24 02:22:55;;;;;;;64.97;30.65;;;;;;;1.58;51.86;101748.37;1726228;81;25794;-58
2022/03/24 02:25:31;;;;;;;73.90;30.15;;;;;;;1.54;52.22;101755.14;1745351;81;25881;-59
2022/03/24 02:27:55;;;;;;;70.45;26.50;;;;;;;1.50;52.10;101757.47;1761916;81;25714;-58
2022/03/24 02:30:24;;;;;;;70.03;29.02;;;;;;;1.49;52.47;101757.54;1732474;81;27450;-58
2022/03/24 02:32:53;;;;;;;64.65;30.02;;;;;;;1.45;52.10;101746.17;1761857;81;25853;-58
2022/03/24 02:35:20;;;;;;;67.32;27.32;;;;;;;1.47;52.07;101747.44;1763719;80;25673;-58
2022/03/24 02:37:47;;;;;;;64.90;27.75;;;;;;;1.45;52.21;101747.50;1773054;80;25763;-59
2022/03/24 02:40:14;;;;;;;64.60;29.77;;;;;;;1.47;52.49;101747.44;1773121;80;25780;-59
2022/03/24 02:42:41;;;;;;;65.80;29.48;;;;;;;1.47;52.75;101748.77;1773004;80;27428;-58
2022/03/24 02:45:10;;;;;;;60.50;26.73;;;;;;;1.40;52.54;101741.47;1772732;80;27229;-58
2022/03/24 02:47:37;;;;;;;72.95;27.20;;;;;;;1.37;52.64;101746.42;1772909;80;25728;-57
2022/03/24 02:50:06;;;;;;;57.95;26.00;;;;;;;1.34;52.26;101747.88;1773100;80;25803;-59
2022/03/24 02:52:32;;;;;;;66.95;27.42;;;;;;;1.31;52.60;101752.39;1773226;80;25920;-57
2022/03/24 02:54:59;;;;;;;64.15;27.93;;;;;;;1.30;52.65;101742.73;1773218;80;27295;-58
2022/03/24 02:57:27;;;;;;;79.10;27.40;;;;;;;1.30;52.50;101738.28;1771585;80;25705;-58
2022/03/24 02:59:55;;;;;;;60.75;27.25;;;;;;;1.29;53.07;101737.88;1742314;82;25797;-58
2022/03/24 03:02:22;;;;;;;60.33;28.62;;;;;;;1.28;52.84;101737.46;1742275;82;25782;-59
2022/03/24 03:04:49;;;;;;;68.07;27.80;;;;;;;1.24;52.68;101735.37;1742084;81;25775;-58
2022/03/24 03:07:17;;;;;;;61.58;25.95;;;;;;;1.20;53.21;101733.77;1742061;82;27521;-59
2022/03/24 03:09:44;;;;;;;59.98;27.55;;;;;;;1.17;53.40;101736.52;1742052;82;25710;-59
2022/03/24 03:12:11;;;;;;;64.42;29.20;;;;;;;1.15;53.04;101739.66;1742270;82;25724;-58
2022/03/24 03:14:39;;;;;;;57.10;24.55;;;;;;;1.14;53.24;101737.08;1742348;81;25743;-58
2022/03/24 03:17:09;;;;;;;67.80;26.62;;;;;;;1.08;53.77;101731.05;1742385;82;25772;-58
2022/03/24 03:19:37;;;;;;;51.75;26.57;;;;;;;1.05;53.69;101726.31;1742259;82;27530;-59
2022/03/24 03:22:06;;;;;;;59.08;28.65;;;;;;;1.03;53.39;101728.17;1742129;82;25794;-57
2022/03/24 03:24:32;;;;;;;54.88;26.73;;;;;;;0.99;53.37;101724.73;1748187;80;25723;-58
2022/03/24 03:27:00;;;;;;;59.93;28.40;;;;;;;0.96;53.49;101719.55;1772891;80;25797;-57
2022/03/24 03:29:27;;;;;;;59.03;25.82;;;;;;;0.98;53.88;101719.48;1772784;80;25761;-58
2022/03/24 03:31:54;;;;;;;57.08;25.65;;;;;;;0.95;53.74;101715.16;1772781;80;27448;-58
2022/03/24 03:34:24;;;;;;;65.20;26.17;;;;;;;0.90;53.78;101719.29;1772451;80;25744;-58
2022/03/24 03:36:53;;;;;;;58.60;26.57;;;;;;;0.89;53.59;101712.25;1759854;80;26389;-58
2022/03/24 03:39:22;;;;;;;64.05;27.45;;;;;;;0.89;54.10;101718.03;1753619;81;26364;-59
2022/03/24 03:41:48;;;;;;;63.42;27.52;;;;;;;0.89;53.95;101724.17;1753344;81;25836;-58
2022/03/24 03:44:15;;;;;;;50.52;25.35;;;;;;;0.84;53.64;101723.47;1753713;81;27533;-59
2022/03/24 03:46:43;;;;;;;54.95;26.07;;;;;;;0.85;53.65;101727.83;1753541;81;25719;-58
2022/03/24 03:49:10;;;;;;;59.48;28.62;;;;;;;0.83;53.86;101727.48;1753673;81;25517;-59
2022/03/24 03:51:38;;;;;;;70.08;28.23;;;;;;;0.83;53.70;101727.48;1753638;81;25687;-58
2022/03/24 03:54:07;;;;;;;61.05;26.97;;;;;;;0.82;53.62;101723.97;1753776;81;25777;-58
2022/03/24 03:56:36;;;;;;;62.38;27.75;;;;;;;0.81;54.11;101717.41;1753627;81;28141;-58
2022/03/24 03:59:04;;;;;;;65.03;27.52;;;;;;;0.79;54.24;101725.39;1767510;79;25771;-59
2022/03/24 04:04:27;;;;;;;63.13;26.77;;;;;;;0.72;54.09;101721.20;1752415;81;25891;-58
2022/03/24 04:06:54;;;;;;;54.08;24.70;;;;;;;0.72;53.99;101723.86;1753747;81;25735;-59
2022/03/24 04:09:21;;;;;;;61.33;27.27;;;;;;;0.70;54.04;101721.27;1753917;80;27621;-58
2022/03/24 04:11:47;;;;;;;54.67;25.62;;;;;;;0.70;54.29;101727.89;1753836;80;25809;-58
2022/03/24 04:14:14;;;;;;;54.83;26.55;;;;;;;0.67;54.06;101722.68;1753600;81;25801;-57
2022/03/24 04:16:41;;;;;;;65.60;27.87;;;;;;;0.68;54.43;101720.88;1745193;81;25949;-57
2022/03/24 04:19:09;;;;;;;61.60;28.05;;;;;;;0.69;54.65;101723.95;1736219;81;27068;-58
2022/03/24 04:21:36;;;;;;;54.65;26.27;;;;;;;0.69;54.56;101722.18;1734337;81;27502;-59
2022/03/24 04:24:04;;;;;;;54.45;27.27;;;;;;;0.68;54.48;101725.73;1728182;81;25736;-59
2022/03/24 04:26:31;;;;;;;57.20;24.57;;;;;;;0.69;54.68;101718.65;1739852;81;25782;-59
2022/03/24 04:28:58;;;;;;;57.78;27.32;;;;;;;0.69;54.92;101720.86;1752258;81;25803;-58
2022/03/24 04:31:25;;;;;;;65.20;27.22;;;;;;;0.71;54.97;101711.09;1748458;81;26006;-58
2022/03/24 04:33:53;;;;;;;56.50;26.93;;;;;;;0.74;54.97;101716.73;1738312;81;28321;-58
2022/03/24 04:36:20;;;;;;;68.35;27.27;;;;;;;0.72;55.04;101711.47;1737459;81;25742;-59
2022/03/24 04:38:47;;;;;;;53.83;24.98;;;;;;;0.73;55.21;101713.67;1752422;81;25710;-59
2022/03/24 04:41:14;;;;;;;63.17;26.97;;;;;;;0.72;55.67;101704.84;1738633;81;25923;-58
2022/03/24 04:43:41;;;;;;;60.12;26.82;;;;;;;0.72;55.12;101705.32;1740899;81;25479;-58
2022/03/24 04:46:09;;;;;;;49.60;25.92;;;;;;;0.70;55.18;101698.75;1709749;82;28447;-58
2022/03/24 04:48:36;;;;;;;62.98;26.65;;;;;;;0.74;55.47;101698.20;1709269;82;25732;-58
2022/03/24 04:51:05;;;;;;;58.00;25.35;;;;;;;0.77;55.20;101696.31;1690459;84;25958;-58
2022/03/24 04:53:33;;;;;;;59.45;26.10;;;;;;;0.79;55.03;101701.55;1720222;81;25926;-57
2022/03/24 04:56:00;;;;;;;66.80;29.67;;;;;;;0.80;54.94;101692.69;1722225;83;25871;-58
2022/03/24 04:58:27;;;;;;;65.15;27.02;;;;;;;0.83;54.90;101695.69;1712190;83;27494;-58
2022/03/24 05:00:54;;;;;;;64.67;28.23;;;;;;;0.86;55.21;101694.27;1720221;83;25483;-58
2022/03/24 05:03:21;;;;;;;52.27;26.90;;;;;;;0.88;54.98;101692.45;1720021;83;25811;-58
2022/03/24 05:05:48;;;;;;;53.73;26.55;;;;;;;0.89;55.18;101699.00;1753357;81;25850;-57
2022/03/24 05:08:15;;;;;;;63.13;27.60;;;;;;;0.93;55.20;101694.03;1717080;83;25800;-58
2022/03/24 05:10:42;;;;;;;57.03;26.85;;;;;;;1.00;55.16;101697.31;1753902;80;27329;-58
2022/03/24 05:13:09;;;;;;;57.58;26.15;;;;;;;1.05;55.10;101695.83;1717080;83;25726;-58
2022/03/24 05:15:35;;;;;;;58.63;24.60;;;;;;;1.06;55.07;101689.18;1753653;80;25678;-58
2022/03/24 05:18:03;;;;;;;52.40;25.57;;;;;;;1.09;55.17;101689.05;1717407;83;25812;-58
2022/03/24 05:20:31;;;;;;;67.72;27.17;;;;;;;1.13;54.93;101692.46;1753760;81;25912;-58
2022/03/24 05:22:58;;;;;;;53.60;26.57;;;;;;;1.16;54.96;101700.32;1717228;83;28392;-57
2022/03/24 05:25:26;;;;;;;53.28;24.80;;;;;;;1.16;54.92;101695.48;1756005;81;25663;-59
2022/03/24 05:27:53;;;;;;;59.23;26.40;;;;;;;1.19;54.96;101694.04;1758870;81;25460;-58
2022/03/24 05:30:20;;;;;;;61.68;27.10;;;;;;;1.24;54.85;101693.44;1759507;80;26525;-58
2022/03/24 05:32:47;;;;;;;55.98;26.15;;;;;;;1.28;54.68;101693.72;1758883;81;25706;-58
2022/03/24 05:35:13;;;;;;;54.98;26.95;;;;;;;1.34;54.85;101688.23;1759051;81;27660;-58
2022/03/24 05:37:41;;;;;;;59.95;26.80;;;;;;;1.43;54.63;101684.84;1751529;80;25476;-58
2022/03/24 05:40:11;;;;;;;55.40;25.75;;;;;;;1.54;54.50;101691.48;1748906;80;25714;-57
2022/03/24 05:42:37;;;;;;;75.42;27.07;;;;;;;1.63;54.80;101686.30;1748795;82;25832;-58
2022/03/24 05:45:06;;;;;;;61.80;26.40;;;;;;;1.72;54.47;101689.08;1749033;80;26148;-58
2022/03/24 05:47:32;;;;;;;59.93;24.65;;;;;;;1.80;54.60;101683.48;1748768;82;27551;-59
2022/03/24 05:49:59;;;;;;;54.30;26.05;;;;;;;1.92;54.65;101682.17;1749140;80;26247;-58
2022/03/24 05:52:34;;;;;;;59.55;26.42;;;;;;;2.03;54.53;101678.19;1749293;81;25611;-58
2022/03/24 05:55:01;;;;;;;69.17;28.83;;;;;;;2.15;54.27;101674.19;1748874;80;25829;-58
2022/03/24 05:57:29;;;;;;;62.38;25.05;;;;;;;2.25;54.45;101679.99;1748796;82;25833;-58
2022/03/24 05:59:55;;;;;;;48.25;23.92;;;;;;;2.28;54.62;101676.38;1749099;81;28454;-58
2022/03/24 06:02:23;;;;;;;57.67;26.20;;;;;;;2.32;54.37;101675.31;1748612;81;25774;-58
2022/03/24 06:04:51;;;;;;;72.97;28.73;;;;;;;2.41;54.25;101678.94;1748765;80;25735;-58
2022/03/24 06:07:18;;;;;;;79.47;28.25;;;;;;;2.50;53.98;101671.92;1748702;82;25520;-57
2022/03/24 06:09:48;;;;;;;72.72;27.30;;;;;;;2.59;53.73;101666.72;1748940;80;26491;-59
2022/03/24 06:12:15;;;;;;;70.37;28.55;;;;;;;2.69;53.50;101671.18;1748712;80;27634;-58
2022/03/24 06:14:42;;;;;;;64.27;29.30;;;;;;;2.79;53.17;101667.66;1748708;80;26129;-57
2022/03/24 06:17:09;;;;;;;74.00;28.35;;;;;;;2.90;52.75;101666.76;1748634;82;25809;-57
2022/03/24 06:19:38;;;;;;;68.07;28.07;;;;;;;3.02;52.47;101668.03;1748764;80;25789;-57
2022/03/24 06:22:07;;;;;;;63.02;27.58;;;;;;;3.15;52.12;101664.37;1748732;82;25710;-58
2022/03/24 06:24:34;;;;;;;63.75;26.57;;;;;;;3.31;51.60;101661.08;1748448;82;28363;-57
2022/03/24 06:27:01;;;;;;;75.47;29.18;;;;;;;3.49;51.17;101658.94;1748599;82;25735;-57
2022/03/24 06:29:28;;;;;;;53.10;25.48;;;;;;;3.66;50.77;101650.66;1748939;81;25562;-57
2022/03/24 06:31:56;;;;;;;68.28;25.75;;;;;;;3.84;49.33;101659.12;1748687;80;25992;-58
2022/03/24 06:34:25;;;;;;;50.55;23.80;;;;;;;4.05;48.41;101647.94;1748927;80;25966;-56
2022/03/24 06:36:54;;;;;;;65.87;24.85;;;;;;;4.27;46.46;101649.56;1753529;81;27454;-59
2022/03/24 06:39:22;;;;;;;56.23;25.72;;;;;;;4.53;44.78;101650.09;1766922;81;25617;-57
2022/03/24 06:41:49;;;;;;;61.90;24.47;;;;;;;4.77;44.84;101645.84;1767107;80;25702;-58
2022/03/24 06:44:16;;;;;;;55.80;25.10;;;;;;;4.96;43.87;101642.64;1766864;81;25789;-58
2022/03/24 06:46:43;;;;;;;63.87;28.10;;;;;;;5.15;44.02;101633.20;1767266;81;25432;-58
2022/03/24 06:49:10;;;;;;;54.93;26.20;;;;;;;5.32;43.42;101629.66;1767203;81;27515;-58
2022/03/24 06:51:37;;;;;;;59.20;26.10;;;;;;;5.49;42.66;101632.75;1767156;80;25773;-58
2022/03/24 06:54:05;;;;;;;64.05;25.60;;;;;;;5.66;41.80;101630.13;1767226;81;25752;-57
2022/03/24 06:56:32;;;;;;;63.28;25.70;;;;;;;5.82;42.20;101626.16;1767047;81;26425;-57
2022/03/24 06:58:58;;;;;;;68.85;26.35;;;;;;;5.94;41.28;101630.34;1738120;80;25731;-57
2022/03/24 07:01:26;;;;;;;56.30;23.55;;;;;;;6.10;41.42;101625.02;1736714;82;27541;-57
2022/03/24 07:03:53;;;;;;;57.90;23.90;;;;;;;6.24;41.32;101624.25;1736721;81;25814;-57
2022/03/24 07:06:21;;;;;;;54.60;25.77;;;;;;;6.40;40.03;101618.89;1736624;82;25794;-57
2022/03/24 07:08:48;;;;;;;43.55;22.20;;;;;;;6.58;40.23;101613.43;1736504;82;25813;-57
2022/03/24 07:11:14;;;;;;;63.13;23.90;;;;;;;6.74;39.55;101614.25;1736639;82;25714;-58
2022/03/24 07:13:41;;;;;;;65.05;24.45;;;;;;;6.89;39.45;101613.82;1736776;82;28311;-58
2022/03/24 07:16:08;;;;;;;57.85;24.00;;;;;;;7.04;39.22;101617.39;1736612;82;25603;-58
2022/03/24 07:18:35;;;;;;;72.10;25.80;;;;;;;7.19;39.17;101619.63;1737233;82;25810;-58
2022/03/24 07:21:02;;;;;;;68.12;24.80;;;;;;;7.32;38.79;101609.48;1736502;82;25763;-57
2022/03/24 07:23:29;;;;;;;48.83;22.93;;;;;;;7.43;38.57;101612.37;1736625;82;25569;-58
2022/03/24 07:25:55;;;;;;;56.13;23.18;;;;;;;7.58;37.72;101613.70;1738001;81;28180;-58
2022/03/24 07:28:22;;;;;;;54.60;23.60;;;;;;;7.72;37.66;101610.16;1718584;82;25756;-58
2022/03/24 07:30:50;;;;;;;64.92;23.85;;;;;;;7.86;37.94;101608.81;1693712;83;25803;-58
2022/03/24 07:33:20;;;;;;;60.98;23.60;;;;;;;8.01;37.23;101611.45;1718985;83;25795;-57
2022/03/24 07:35:48;;;;;;;61.13;25.17;;;;;;;8.17;37.34;101610.84;1718736;83;25904;-57
2022/03/24 07:38:15;;;;;;;54.27;25.35;;;;;;;8.30;37.09;101608.22;1718983;82;27465;-58
2022/03/24 07:40:44;;;;;;;60.00;25.05;;;;;;;8.43;37.04;101603.78;1718796;82;25716;-58
2022/03/24 07:43:11;;;;;;;64.53;25.48;;;;;;;8.59;37.00;101604.13;1689270;84;25849;-58
2022/03/24 07:45:38;;;;;;;53.90;23.98;;;;;;;8.74;36.60;101591.00;1718644;83;25849;-58
2022/03/24 07:48:16;;;;;;;50.58;25.90;;;;;;;8.89;35.98;101589.60;1719123;83;25463;-56
2022/03/24 07:50:47;;;;;;;58.35;23.75;;;;;;;9.05;36.26;101586.73;1689099;83;27487;-58
2022/03/24 07:53:19;;;;;;;63.65;25.12;;;;;;;9.23;35.68;101585.92;1719003;83;26115;-57
2022/03/24 07:55:47;;;;;;;56.37;24.55;;;;;;;9.37;35.52;101580.42;1718656;82;26539;-57
2022/03/24 07:58:17;;;;;;;55.85;25.95;;;;;;;9.54;35.19;101585.95;1718699;83;25810;-58
2022/03/24 08:00:45;;;;;;;84.30;26.12;;;;;;;9.69;35.26;101573.25;1705709;82;25711;-57
2022/03/24 08:03:20;;;;;;;55.75;25.02;;;;;;;9.85;35.24;101570.32;1719031;83;28207;-57
2022/03/24 08:05:49;;;;;;;61.58;25.23;;;;;;;10.02;35.05;101566.38;1718349;83;25572;-57
2022/03/24 08:08:17;;;;;;;56.00;24.43;;;;;;;10.21;34.47;101564.17;1745834;82;25724;-58
2022/03/24 08:10:46;;;;;;;50.70;24.35;;;;;;;10.37;34.86;101557.13;1748572;81;26769;-57
2022/03/24 08:13:17;;;;;;;48.60;22.67;;;;;;;10.53;34.74;101551.48;1748735;82;25746;-57
2022/03/24 08:15:45;;;;;;;54.35;22.52;;;;;;;10.68;34.56;101553.00;1748520;81;27721;-57
2022/03/24 08:18:14;;;;;;;52.78;23.18;;;;;;;10.87;34.54;101548.42;1748812;82;25947;-58
2022/03/24 08:20:42;;;;;;;60.25;25.92;;;;;;;11.07;33.82;101544.16;1748765;81;25477;-58
2022/03/24 08:23:11;;;;;;;54.95;25.25;;;;;;;11.24;33.67;101543.31;1748807;81;25785;-58
2022/03/24 08:25:40;;;;;;;51.28;24.63;;;;;;;11.45;33.73;101539.90;1742429;82;25806;-57
2022/03/24 08:28:08;;;;;;;47.15;19.25;;;;;;;11.65;33.27;101532.89;1746791;82;28192;-58
2022/03/24 08:30:35;;;;;;;40.43;17.85;;;;;;;11.90;32.54;101532.59;1734534;82;25862;-57
2022/03/24 08:33:03;;;;;;;40.05;16.37;;;;;;;12.18;30.85;101526.80;1718929;82;25834;-57
2022/03/24 08:35:30;;;;;;;37.10;16.48;;;;;;;12.47;30.02;101531.09;1689360;84;25816;-57
2022/03/24 08:37:57;;;;;;;36.60;17.02;;;;;;;12.73;28.05;101525.81;1718936;82;25978;-57
2022/03/24 08:40:24;;;;;;;30.37;16.42;;;;;;;12.95;27.17;101520.77;1718791;82;28342;-57
2022/03/24 08:42:51;;;;;;;38.78;16.02;;;;;;;13.21;28.17;101512.22;1719070;82;25684;-57
2022/03/24 08:45:18;;;;;;;41.85;16.50;;;;;;;13.44;27.19;101513.75;1718707;83;25659;-57
2022/03/24 08:47:45;;;;;;;37.63;15.85;;;;;;;13.62;25.53;101518.50;1719222;82;25907;-58
2022/03/24 08:50:12;;;;;;;32.08;15.15;;;;;;;13.82;25.33;101519.39;1718869;83;25447;-58
2022/03/24 08:52:41;;;;;;;31.95;16.65;;;;;;;14.03;25.24;101510.33;1689212;84;28265;-58
2022/03/24 08:55:11;;;;;;;33.83;14.98;;;;;;;14.21;24.80;101513.17;1718761;82;25780;-58
2022/03/24 08:57:39;;;;;;;30.57;15.95;;;;;;;14.42;25.06;101508.99;1696718;83;25694;-58
2022/03/24 09:00:15;;;;;;;37.60;16.75;;;;;;;14.70;24.97;101507.78;1718768;83;26122;-58
2022/03/24 09:02:46;;;;;;;35.60;15.60;;;;;;;14.95;25.04;101496.80;1718593;82;25905;-57
2022/03/24 09:05:16;;;;;;;37.90;16.57;;;;;;;15.27;25.13;101496.91;1718746;83;27308;-57
2022/03/24 09:07:44;;;;;;;32.20;14.80;;;;;;;15.59;25.29;101483.91;1718594;82;25828;-58
2022/03/24 09:10:12;;;;;;;31.97;14.35;;;;;;;15.90;24.33;101478.15;1718750;82;25673;-57
2022/03/24 09:12:44;;;;;;;39.75;14.45;;;;;;;16.18;23.97;101473.48;1718875;83;25781;-59
2022/03/24 09:15:13;;;;;;;27.93;14.35;;;;;;;16.49;23.46;101473.08;1718907;83;25800;-58
2022/03/24 09:17:41;;;;;;;29.12;13.65;;;;;;;16.75;21.04;101466.80;1718929;83;27550;-58
2022/03/24 09:20:11;;;;;;;38.45;14.00;;;;;;;16.98;21.11;101456.80;1718819;82;25788;-58
2022/03/24 09:22:40;;;;;;;39.20;14.00;;;;;;;17.30;22.25;101449.78;1719948;82;25802;-58
2022/03/24 09:25:08;;;;;;;34.73;14.85;;;;;;;17.52;21.27;101458.72;1734894;81;25828;-58
2022/03/24 09:27:37;;;;;;;31.25;14.58;;;;;;;17.71;20.32;101455.86;1749009;81;25797;-59
2022/03/24 09:30:12;;;;;;;24.63;14.23;;;;;;;18.05;20.98;101444.90;1748659;82;27003;-58
2022/03/24 09:32:37;;;;;;;36.70;14.30;;;;;;;18.44;19.75;101451.00;1705984;83;25799;-58
2022/03/24 09:35:06;;;;;;;31.50;14.68;;;;;;;19.21;20.08;101435.17;1718895;82;25801;-58
2022/03/24 09:37:33;;;;;;;27.70;15.53;;;;;;;19.93;19.55;101435.97;1718933;82;25815;-59
2022/03/24 09:40:02;;;;;;;33.92;14.47;;;;;;;20.54;18.16;101439.19;1718855;83;25762;-59
2022/03/24 09:42:30;;;;;;;31.97;16.15;;;;;;;20.85;17.04;101439.06;1718271;83;27545;-59
2022/03/24 09:45:03;;;;;;;31.80;14.50;;;;;;;20.95;16.75;101438.27;1717887;83;25724;-58
2022/03/24 09:47:31;;;;;;;27.32;14.13;;;;;;;21.25;17.37;101435.52;1748470;81;25822;-58
2022/03/24 09:49:58;;;;;;;40.12;14.25;;;;;;;21.98;17.20;101423.70;1748558;82;25851;-58
2022/03/24 09:52:26;;;;;;;30.50;13.22;;;;;;;22.43;16.17;101424.86;1748684;82;25743;-59
2022/03/24 09:54:54;;;;;;;26.50;12.00;;;;;;;22.95;15.91;101422.64;1748666;81;27477;-59
2022/03/24 09:57:22;;;;;;;23.60;11.95;;;;;;;23.41;15.52;101428.06;1728051;82;25731;-59
2022/03/24 09:59:50;;;;;;;30.55;13.35;;;;;;;23.48;14.88;101423.98;1718825;82;25863;-58
2022/03/24 10:02:18;;;;;;;24.80;11.70;;;;;;;23.98;14.86;101420.91;1718689;82;26632;-58
2022/03/24 10:04:55;;;;;;;24.10;11.88;;;;;;;24.35;14.86;101430.97;1718870;83;25848;-58
2022/03/24 10:07:25;;;;;;;25.88;13.40;;;;;;;24.74;14.42;101427.58;1718592;83;27477;-59
2022/03/24 10:09:56;;;;;;;26.75;13.83;;;;;;;25.00;13.88;101415.67;1719294;82;25804;-59
2022/03/24 10:12:38;;;;;;;29.37;14.15;;;;;;;25.00;13.14;101407.41;1718676;83;25733;-59
2022/03/24 10:15:08;;;;;;;35.85;15.05;;;;;;;24.92;12.98;101422.24;1718952;83;25771;-59
2022/03/24 10:17:37;;;;;;;33.63;15.88;;;;;;;24.93;13.74;101411.55;1718816;83;25780;-59
2022/03/24 10:20:15;;;;;;;33.40;15.48;;;;;;;25.34;13.98;101410.86;1718856;82;27648;-59
2022/03/24 10:23:01;;;;;;;56.33;17.17;;;;;;;25.53;13.89;101404.13;1720705;82;25727;-59
2022/03/24 10:25:31;;;;;;;34.33;14.73;;;;;;;26.12;13.31;101414.97;1718773;82;25798;-59
2022/03/24 10:28:14;;;;;;;35.90;14.98;;;;;;;26.22;13.05;101413.94;1688997;83;25781;-58
2022/03/24 10:30:59;;;;;;;47.38;16.77;;;;;;;26.32;13.34;101406.00;1674017;83;25777;-59
2022/03/24 10:33:35;;;;;;;34.38;15.55;;;;;;;26.58;12.76;101415.08;1677899;84;27524;-59
2022/03/24 10:36:17;;;;;;;40.15;17.05;;;;;;;26.48;13.04;101416.99;1761717;81;25521;-59
2022/03/24 10:38:48;;;;;;;34.95;17.95;;;;;;;26.35;13.21;101418.48;1714713;83;25758;-59
2022/03/24 10:41:28;;;;;;;35.13;18.35;;;;;;;26.52;13.53;101414.07;1753523;81;25756;-59
2022/03/24 10:43:59;;;;;;;59.48;18.62;;;;;;;26.59;13.25;101405.73;1717080;83;25997;-59
2022/03/24 10:46:30;;;;;;;37.85;17.37;;;;;;;27.03;12.71;101411.20;1752817;80;27501;-60
2022/03/24 10:48:57;;;;;;;32.20;15.85;;;;;;;26.78;13.06;101406.61;1715391;83;26505;-58
2022/03/24 10:51:32;;;;;;;37.88;16.10;;;;;;;26.87;12.88;101401.09;1753432;81;25751;-59
2022/03/24 10:54:16;;;;;;;31.45;16.00;;;;;;;27.10;12.85;101400.95;1717282;83;25760;-59
2022/03/24 10:56:54;;;;;;;118.33;21.33;;;;;;;27.34;12.93;101401.88;1753512;81;25837;-59
2022/03/24 10:59:26;;;;;;;32.88;16.20;;;;;;;27.25;12.63;101395.55;1693303;83;28130;-58
2022/03/24 11:01:54;;;;;;;37.17;17.23;;;;;;;26.82;13.48;101395.95;1725512;81;25815;-59
2022/03/24 11:04:21;;;;;;;62.75;19.23;;;;;;;26.79;13.32;101390.36;1713280;83;26483;-59
2022/03/24 11:06:51;;;;;;;34.88;16.93;;;;;;;26.94;13.14;101383.63;1719987;81;25953;-59
2022/03/24 11:09:31;;;;;;;60.98;17.57;;;;;;;27.00;13.43;101391.81;1720131;82;25849;-59
2022/03/24 11:12:26;;;;;;;32.25;15.85;;;;;;;27.36;12.24;101392.52;1704867;83;27514;-59
2022/03/24 11:15:01;;;;;;;38.38;16.45;;;;;;;26.95;12.88;101391.67;1692998;84;25765;-60
2022/03/24 11:17:31;;;;;;;30.82;14.63;;;;;;;26.83;12.61;101387.98;1690940;82;26405;-59
2022/03/24 11:20:08;;;;;;;35.40;16.27;;;;;;;27.01;12.71;101393.50;1691702;84;26406;-60
2022/03/24 11:23:00;;;;;;;41.58;15.50;;;;;;;27.17;13.08;101396.70;1712721;83;25893;-60
2022/03/24 11:25:29;;;;;;;24.87;14.28;;;;;;;27.34;12.83;101403.27;1718448;83;27523;-59